Time;durP1;ratioP1;P1;durP2;ratioP2;P2;SDS_P1;SDS_P2;PMS_P1;PMS_P2;Temp;Humidity;BMP_temperature;BMP_pressure;BME280_temperature;BME280_humidity;BME280_pressure;Samples;Min_cycle;Max_cycle;Signal;HPM_P1;HPM_P2
2022/09/08 00:01:11;;;;;;;4.50;2.87;;;23.30;88.50;;;23.68;54.17;98065.59;5017153;28;123962;-79
2022/09/08 00:03:38;;;;;;;2.73;2.00;;;24.30;89.90;;;23.68;54.36;98065.59;5019840;28;118980;-79
2022/09/08 00:06:12;;;;;;;3.13;2.03;;;23.20;89.10;;;23.67;54.16;98058.34;5013723;28;119109;-78
2022/09/08 00:08:40;;;;;;;2.60;2.10;;;23.20;89.40;;;23.66;54.50;98053.91;5007773;28;124190;-78
2022/09/08 00:11:09;;;;;;;2.77;1.90;;;23.20;89.60;;;23.62;54.76;98050.34;5023241;28;122905;-77
2022/09/08 00:13:39;;;;;;;3.13;1.70;;;23.20;89.90;;;23.59;54.67;98045.56;5009416;28;120354;-77
2022/09/08 00:16:07;;;;;;;3.53;2.00;;;23.20;90.00;;;23.56;54.73;98035.09;5017211;28;120027;-76
2022/09/08 00:18:39;;;;;;;5.23;2.13;;;23.10;90.00;;;23.55;54.72;98030.66;5019853;28;124750;-79
2022/09/08 00:21:08;;;;;;;3.20;2.30;;;23.10;90.00;;;23.55;54.74;98025.03;5009849;28;123787;-76
2022/09/08 00:23:35;;;;;;;3.37;2.00;;;23.10;90.10;;;23.56;54.77;98029.44;5010751;28;119380;-76
2022/09/08 00:26:02;;;;;;;3.00;2.13;;;23.10;90.10;;;23.58;54.98;98035.47;5013951;28;118003;-77
2022/09/08 00:28:30;;;;;;;2.40;2.20;;;23.10;90.20;;;23.58;55.39;98032.66;5011748;28;124275;-77
2022/09/08 00:30:59;;;;;;;3.40;2.23;;;23.20;90.40;;;23.60;55.23;98027.41;5013977;28;122941;-76
2022/09/08 00:33:26;;;;;;;2.63;2.07;;;23.20;90.50;;;23.62;55.44;98041.88;5012269;28;119206;-79
2022/09/08 00:35:54;;;;;;;5.90;1.83;;;23.20;90.60;;;23.61;55.29;98045.91;5011788;28;118971;-77
2022/09/08 00:38:21;;;;;;;2.27;2.07;;;23.20;91.00;;;23.64;55.52;98047.88;5025740;27;123093;-76
2022/09/08 00:40:52;;;;;;;3.30;2.20;;;23.20;90.80;;;23.63;55.76;98060.41;5024195;28;123843;-76
2022/09/08 00:43:42;;;;;;;4.53;2.60;;;23.20;90.80;;;23.61;55.60;98060.00;5030253;27;119399;-77
2022/09/08 00:46:12;;;;;;;3.03;2.20;;;23.20;90.90;;;23.62;55.71;98070.09;5021655;28;119299;-76
2022/09/08 00:48:55;;;;;;;2.20;1.90;;;23.20;91.00;;;23.61;55.70;98062.84;5013170;27;124178;-77
2022/09/08 00:51:24;;;;;;;5.80;2.37;;;23.20;91.00;;;23.60;55.80;98066.88;5010071;28;123843;-76
2022/09/08 00:53:51;;;;;;;3.77;2.30;;;23.20;91.10;;;23.58;56.04;98086.22;5012864;27;119265;-77
2022/09/08 00:56:19;;;;;;;4.27;2.73;;;23.20;91.10;;;23.55;55.67;98115.28;5024000;28;116925;-77
2022/09/08 00:58:45;;;;;;;2.90;2.17;;;23.10;91.10;;;23.49;55.82;98128.22;5010637;28;124982;-77
2022/09/08 01:01:12;;;;;;;3.37;2.10;;;23.10;91.10;;;23.40;56.11;98113.78;5012315;28;123391;-80
2022/09/08 01:03:41;;;;;;;3.40;2.10;;;23.00;91.10;;;23.32;56.12;98094.13;5017507;28;120180;-77
2022/09/08 01:12:45;;;;;;;3.20;1.80;;;22.90;91.60;;;23.22;56.96;98109.09;5025676;27;124390;-78
2022/09/08 01:15:26;;;;;;;7.00;2.00;;;22.90;91.70;;;23.24;57.07;98112.31;5012713;28;119445;-77
2022/09/08 01:17:54;;;;;;;3.50;2.20;;;22.90;91.90;;;23.24;56.91;98117.13;5020801;28;118999;-77
2022/09/08 01:20:41;;;;;;;4.50;2.23;;;22.80;91.90;;;23.19;56.94;98109.94;5010806;28;123373;-80
2022/09/08 01:23:44;;;;;;;2.07;1.87;;;22.80;91.80;;;23.15;56.57;98103.50;5012736;28;124026;-79
2022/09/08 01:26:31;;;;;;;5.73;2.10;;;22.80;91.90;;;23.14;56.89;98111.16;5007644;28;119123;-77
2022/09/08 01:29:00;;;;;;;3.33;2.30;;;22.80;92.00;;;23.15;57.39;98109.16;5015493;28;118979;-78
2022/09/08 01:31:30;;;;;;;3.53;1.90;;;22.80;92.10;;;23.18;57.34;98107.53;5034337;27;124228;-78
2022/09/08 01:34:00;;;;;;;6.40;2.27;;;22.80;92.20;;;23.18;57.64;98102.69;5008834;28;123621;-79
2022/09/08 01:36:26;;;;;;;2.60;2.10;;;22.80;92.30;;;23.19;57.47;98097.88;5013061;28;119233;-79
2022/09/08 01:38:53;;;;;;;2.10;1.90;;;22.80;92.40;;;23.18;57.74;98099.84;5030630;27;117705;-78
2022/09/08 01:41:20;;;;;;;3.80;2.00;;;22.80;92.40;;;23.18;57.61;98097.03;5024183;28;124275;-80
2022/09/08 01:43:46;;;;;;;4.03;2.20;;;22.80;92.40;;;23.15;57.72;98078.94;5022680;28;123564;-79
2022/09/08 01:46:13;;;;;;;3.17;1.97;;;22.80;92.50;;;23.16;57.88;98085.41;5008552;28;119432;-78
2022/09/08 01:48:39;;;;;;;3.00;2.20;;;22.80;92.60;;;23.14;58.04;98079.38;5009392;27;118822;-79
2022/09/08 01:51:08;;;;;;;2.70;2.00;;;22.80;92.70;;;23.11;58.39;98086.63;5008177;28;123968;-77
2022/09/08 01:53:34;;;;;;;2.90;2.23;;;22.70;92.80;;;23.12;58.23;98081.78;5005325;28;123502;-78
2022/09/08 01:56:02;;;;;;;2.37;2.17;;;22.70;92.80;;;23.13;58.13;98081.41;4998493;28;119636;-77
2022/09/08 01:58:28;;;;;;;5.70;2.03;;;22.70;92.90;;;23.14;58.37;98082.19;5012018;27;120030;-79
2022/09/08 02:00:57;;;;;;;2.37;1.90;;;22.70;93.00;;;23.12;58.42;98078.97;5006606;28;124305;-76
2022/09/08 02:03:24;;;;;;;3.23;2.33;;;22.70;93.10;;;23.11;58.44;98080.19;5016163;28;124340;-76
2022/09/08 02:05:50;;;;;;;5.13;2.67;;;22.70;93.20;;;23.08;58.66;98081.84;5011159;28;119399;-77
2022/09/08 02:08:17;;;;;;;3.53;2.23;;;22.70;93.30;;;23.08;58.75;98081.84;5008682;28;118716;-76
2022/09/08 02:10:56;;;;;;;2.83;1.90;;;22.60;93.30;;;23.05;59.04;98077.03;5014733;28;123866;-78
2022/09/08 02:13:24;;;;;;;3.20;2.00;;;22.60;93.40;;;23.04;59.00;98068.97;5012560;28;123753;-76
2022/09/08 02:15:57;;;;;;;3.70;2.47;;;22.60;93.50;;;23.02;59.10;98065.75;5015945;28;119500;-76
2022/09/08 02:18:23;;;;;;;2.87;1.90;;;22.60;93.50;;;22.99;58.79;98056.13;5011831;28;119354;-76
2022/09/08 02:20:50;;;;;;;3.90;1.77;;;22.60;93.50;;;22.97;58.49;98060.56;5007825;28;124129;-76
2022/09/08 02:23:19;;;;;;;3.77;1.93;;;22.50;93.30;;;22.92;58.38;98051.31;5001535;28;122800;-76
2022/09/08 02:25:45;;;;;;;2.20;1.90;;;22.50;93.20;;;22.87;58.25;98057.41;5007020;28;119908;-76
2022/09/08 02:28:12;;;;;;;2.73;1.97;;;22.40;93.10;;;22.82;58.07;98052.19;5011215;28;119299;-76
2022/09/08 02:30:39;;;;;;;3.33;2.20;;;23.10;93.40;;;22.78;58.25;98048.59;5011530;28;124107;-77
2022/09/08 02:33:05;;;;;;;2.77;1.67;;;22.40;93.00;;;22.76;58.27;98050.25;5018195;27;123849;-78
2022/09/08 02:35:31;;;;;;;4.50;2.00;;;22.40;93.10;;;22.73;58.24;98037.78;5009918;28;119303;-76
2022/09/08 02:37:58;;;;;;;2.97;1.80;;;22.30;93.00;;;22.70;57.88;98033.78;5021730;28;118224;-76
2022/09/08 02:40:24;;;;;;;2.07;1.80;;;22.30;93.00;;;22.64;58.24;98029.78;5016599;27;123992;-77
2022/09/08 02:42:51;;;;;;;2.40;1.40;;;22.20;92.90;;;22.62;58.01;98026.59;5012846;28;122851;-78
2022/09/08 02:45:18;;;;;;;3.60;1.90;;;22.20;92.90;;;22.60;58.08;98031.81;5018945;28;120762;-80
2022/09/08 02:47:44;;;;;;;5.17;2.00;;;22.20;92.90;;;22.59;57.76;98032.22;5020672;27;119927;-77
2022/09/08 02:50:10;;;;;;;2.30;1.83;;;22.20;92.90;;;22.55;57.92;98037.09;5016487;28;124143;-77
2022/09/08 02:52:37;;;;;;;2.70;1.70;;;22.20;92.90;;;22.49;57.65;98028.28;5017870;28;122959;-77
2022/09/08 02:55:04;;;;;;;1.83;1.50;;;22.10;92.80;;;22.42;57.88;98029.09;5010929;28;118409;-80
2022/09/08 02:57:31;;;;;;;2.73;1.40;;;22.00;92.70;;;22.36;57.97;98032.78;5016426;28;118918;-78
2022/09/08 02:59:57;;;;;;;1.83;1.60;;;22.00;92.70;;;22.32;57.63;98034.81;5012768;28;123352;-78
2022/09/08 03:02:24;;;;;;;1.63;1.23;;;21.90;92.60;;;22.26;57.90;98032.41;5008777;27;123710;-78
2022/09/08 03:04:50;;;;;;;2.07;1.40;;;21.90;92.60;;;22.22;57.70;98030.84;5028874;27;120984;-79
2022/09/08 03:07:18;;;;;;;2.23;1.60;;;21.90;92.70;;;22.20;57.96;98036.06;5016275;28;118067;-81
2022/09/08 03:09:44;;;;;;;2.83;1.53;;;21.90;92.70;;;22.18;58.02;98030.00;5020217;28;123823;-78
2022/09/08 03:12:12;;;;;;;3.23;1.53;;;21.80;92.70;;;22.14;58.17;98038.47;5016388;27;123854;-82
2022/09/08 03:14:38;;;;;;;1.43;1.30;;;21.80;92.80;;;22.12;58.19;98028.84;5021177;28;119684;-83
2022/09/08 03:17:05;;;;;;;1.57;1.23;;;21.80;92.90;;;22.11;58.24;98038.47;5022259;28;119307;-79
2022/09/08 03:19:54;;;;;;;1.53;1.37;;;21.70;92.90;;;22.04;58.27;98037.31;5016696;28;124716;-79
2022/09/08 03:22:20;;;;;;;3.13;1.10;;;21.70;93.00;;;22.02;58.44;98039.72;5020465;28;122795;-82
2022/09/08 03:24:47;;;;;;;1.43;1.20;;;21.70;93.00;;;22.00;58.65;98033.72;5040322;27;118616;-85
2022/09/08 03:27:13;;;;;;;1.40;1.10;;;21.60;93.10;;;22.00;58.79;98033.72;5020564;28;118874;-78
2022/09/08 03:29:40;;;;;;;2.13;1.30;;;21.60;93.10;;;21.97;58.67;98031.69;5016850;28;124099;-79
2022/09/08 03:32:06;;;;;;;2.07;1.53;;;21.60;93.10;;;21.93;58.49;98036.56;5033355;28;124020;-79
2022/09/08 03:34:33;;;;;;;2.13;1.17;;;21.60;93.10;;;21.89;59.02;98038.56;5021502;28;120598;-77
2022/09/08 03:37:01;;;;;;;1.10;1.00;;;21.50;93.10;;;21.86;58.66;98036.56;5016067;28;120468;-77
2022/09/08 03:39:31;;;;;;;1.80;1.50;;;21.50;93.20;;;21.84;58.62;98034.19;5014853;27;124488;-78
2022/09/08 03:41:58;;;;;;;1.80;1.20;;;21.40;93.20;;;21.83;59.07;98034.56;5021057;27;123003;-77
2022/09/08 03:44:25;;;;;;;2.50;1.20;;;21.50;93.20;;;21.80;58.63;98035.38;5010395;27;119457;-77
2022/09/08 03:46:51;;;;;;;1.27;0.93;;;21.40;93.20;;;21.76;59.17;98031.78;5020476;27;118435;-77
2022/09/08 03:49:17;;;;;;;1.83;1.20;;;21.40;93.20;;;21.74;58.89;98037.03;5008663;28;124414;-77
2022/09/08 03:51:44;;;;;;;1.83;1.50;;;21.40;93.40;;;21.74;58.85;98040.63;5014203;28;123813;-77
2022/09/08 03:57:06;;;;;;;1.47;1.10;;;21.30;93.40;;;21.72;59.22;98039.44;5012083;28;119260;-83
2022/09/08 03:59:33;;;;;;;1.10;1.00;;;21.30;93.70;;;21.71;59.18;98026.56;5019474;28;123468;-80
2022/09/08 04:01:59;;;;;;;1.50;1.13;;;21.30;93.70;;;21.71;58.89;98035.00;5013565;28;123863;-78
2022/09/08 04:04:26;;;;;;;2.57;1.10;;;21.30;93.40;;;21.69;58.97;98041.03;5021607;28;119223;-80
2022/09/08 04:06:52;;;;;;;2.23;1.10;;;21.30;93.50;;;21.66;58.90;98030.59;5027752;28;118010;-79
2022/09/08 04:09:19;;;;;;;1.77;1.07;;;21.20;93.50;;;21.66;59.00;98033.41;5018335;28;124156;-80
2022/09/08 04:11:47;;;;;;;1.20;1.10;;;21.20;93.50;;;21.64;59.25;98033.03;5009731;28;124368;-78
2022/09/08 04:14:15;;;;;;;1.30;0.90;;;21.20;93.50;;;21.62;59.21;98027.78;5017700;28;119359;-80
2022/09/08 04:16:42;;;;;;;2.03;1.40;;;21.20;93.60;;;21.61;59.31;98031.81;5012102;27;118971;-80
2022/09/08 04:19:10;;;;;;;2.37;1.30;;;21.20;93.60;;;21.60;59.16;98030.22;5021015;28;124582;-83
2022/09/08 04:21:37;;;;;;;1.47;1.20;;;21.20;93.60;;;21.58;59.68;98034.66;5022469;27;122966;-78
2022/09/08 04:24:04;;;;;;;3.50;1.47;;;21.20;93.70;;;21.58;59.80;98040.28;5012478;28;121796;-78
2022/09/08 04:26:30;;;;;;;1.00;0.87;;;21.20;93.70;;;21.57;59.70;98024.59;5022910;27;120109;-79
2022/09/08 04:28:58;;;;;;;1.60;1.10;;;21.20;93.70;;;21.55;59.31;98030.63;5016398;28;124127;-80
2022/09/08 04:31:25;;;;;;;9.17;1.53;;;21.20;93.80;;;21.53;59.75;98041.47;5019759;28;124169;-79
2022/09/08 04:33:51;;;;;;;2.37;1.20;;;21.10;93.80;;;21.49;59.52;98032.22;5023980;28;119258;-78
2022/09/08 04:36:21;;;;;;;1.77;1.20;;;21.10;93.80;;;21.46;59.65;98041.47;5011116;28;119092;-79
2022/09/08 04:38:48;;;;;;;1.40;1.10;;;21.10;93.90;;;21.44;59.80;98035.47;5020487;27;124145;-78
2022/09/08 04:41:16;;;;;;;1.47;1.10;;;21.10;93.90;;;21.40;59.64;98041.09;5027610;28;123068;-78
2022/09/08 04:43:43;;;;;;;1.13;1.00;;;21.00;93.90;;;21.37;60.11;98049.50;5016784;28;120054;-79
2022/09/08 04:46:13;;;;;;;1.40;1.20;;;21.00;93.90;;;21.35;59.90;98049.09;5023340;28;119002;-78
2022/09/08 04:48:41;;;;;;;1.43;1.17;;;21.00;94.00;;;21.33;59.67;98048.69;5010896;27;124158;-79
2022/09/08 04:51:19;;;;;;;1.40;1.10;;;21.00;94.00;;;21.30;60.31;98049.50;5010503;28;123346;-79
2022/09/08 04:53:47;;;;;;;2.10;1.00;;;20.90;94.00;;;21.28;59.93;98051.91;5014535;28;119261;-78
2022/09/08 04:56:15;;;;;;;1.57;1.17;;;20.90;94.10;;;21.30;60.18;98050.28;5008808;28;119031;-78
2022/09/08 04:58:43;;;;;;;1.80;1.30;;;20.90;94.50;;;21.30;60.23;98052.31;5011060;28;124738;-78
2022/09/08 05:01:13;;;;;;;2.20;1.30;;;20.90;94.20;;;21.29;60.04;98059.94;5011263;27;124081;-78
2022/09/08 05:03:41;;;;;;;1.63;1.00;;;20.90;94.20;;;21.26;59.94;98057.16;5018138;28;119294;-78
2022/09/08 05:06:14;;;;;;;3.00;1.30;;;20.90;94.10;;;21.24;60.02;98053.94;5012079;28;119484;-78
2022/09/08 05:08:44;;;;;;;1.87;1.33;;;20.90;94.20;;;21.24;60.17;98056.72;5016472;27;124202;-78
2022/09/08 05:11:11;;;;;;;1.83;1.40;;;20.80;94.10;;;21.21;60.19;98063.16;5005592;28;124241;-78
2022/09/08 05:13:39;;;;;;;1.37;1.10;;;20.80;94.10;;;21.21;60.13;98071.59;5009769;28;119819;-78
2022/09/08 05:16:12;;;;;;;1.37;1.10;;;20.80;94.10;;;21.16;60.01;98078.41;5014231;28;120251;-79
2022/09/08 05:18:39;;;;;;;1.30;1.00;;;20.80;94.20;;;21.12;60.42;98088.84;5015365;28;124159;-78
2022/09/08 05:21:08;;;;;;;4.37;1.13;;;20.70;94.10;;;21.08;60.46;98099.28;5033779;27;123166;-78
2022/09/08 05:23:35;;;;;;;1.20;1.07;;;20.70;94.20;;;21.08;60.95;98102.88;5013850;28;119794;-79
2022/09/08 05:26:08;;;;;;;2.03;1.33;;;20.70;94.30;;;21.09;60.82;98103.66;5015151;28;118834;-79
2022/09/08 05:28:38;;;;;;;1.33;1.10;;;20.80;94.50;;;21.07;60.70;98109.72;5012149;28;124184;-76
2022/09/08 05:31:06;;;;;;;1.77;1.23;;;20.70;94.40;;;21.06;60.52;98110.88;5016198;28;124213;-76
2022/09/08 05:33:33;;;;;;;1.20;0.93;;;20.70;94.50;;;21.06;61.15;98113.69;5024357;28;119106;-78
2022/09/08 05:36:01;;;;;;;2.27;1.10;;;20.60;94.50;;;21.05;61.10;98105.69;5009827;28;119313;-79
2022/09/08 05:38:27;;;;;;;1.20;1.10;;;20.60;94.60;;;21.05;60.69;98106.47;5019935;27;123915;-76
2022/09/08 05:40:53;;;;;;;1.23;1.10;;;20.60;94.60;;;21.06;60.82;98118.53;5020956;27;123696;-76
2022/09/08 05:43:20;;;;;;;1.20;1.00;;;20.70;94.70;;;21.03;61.25;98124.94;5014087;28;119466;-77
2022/09/08 05:45:49;;;;;;;1.20;1.00;;;20.60;94.70;;;20.99;61.09;98124.94;5011038;28;119159;-76
2022/09/08 05:48:16;;;;;;;2.27;1.10;;;20.60;94.80;;;20.98;61.58;98136.56;5011812;28;123807;-79
2022/09/08 05:50:44;;;;;;;3.67;1.10;;;20.60;94.90;;;20.91;61.60;98134.56;5015964;28;123995;-78
2022/09/08 05:53:13;;;;;;;1.80;1.40;;;20.50;94.90;;;20.85;61.60;98142.56;5012207;28;119110;-78
2022/09/08 05:55:41;;;;;;;1.20;1.10;;;20.50;95.00;;;20.83;61.77;98136.53;5008444;28;118979;-82
2022/09/08 05:58:12;;;;;;;2.70;1.17;;;20.50;95.10;;;20.81;62.01;98135.34;5013868;28;124095;-79
2022/09/08 06:00:38;;;;;;;1.73;1.20;;;20.40;95.10;;;20.81;62.01;98147.38;5016790;28;124354;-78
2022/09/08 06:03:05;;;;;;;1.40;1.20;;;20.40;95.10;;;20.78;62.09;98147.38;5007483;27;119279;-79
2022/09/08 06:05:34;;;;;;;2.30;1.17;;;20.40;95.10;;;20.74;61.67;98145.34;5004866;28;120673;-80
2022/09/08 06:08:01;;;;;;;3.10;1.33;;;20.40;95.10;;;20.70;61.55;98152.16;5023686;28;124245;-79
2022/09/08 06:10:28;;;;;;;3.90;1.40;;;20.40;95.10;;;20.66;61.56;98156.94;5025053;28;123798;-78
2022/09/08 06:12:54;;;;;;;1.87;1.40;;;20.30;95.00;;;20.62;61.62;98167.34;5015969;27;119437;-78
2022/09/08 06:15:21;;;;;;;2.27;1.20;;;20.30;95.00;;;20.56;61.29;98158.53;5007244;28;118929;-79
2022/09/08 06:17:47;;;;;;;2.90;1.33;;;20.20;94.80;;;20.50;61.43;98154.47;5005665;28;124089;-79
2022/09/08 06:20:14;;;;;;;1.50;1.13;;;20.20;94.80;;;20.48;61.21;98165.28;5008928;28;123760;-83
2022/09/08 06:22:40;;;;;;;2.50;1.47;;;20.10;94.80;;;20.44;61.41;98168.03;5006970;28;119450;-79
2022/09/08 06:25:08;;;;;;;1.50;1.10;;;20.10;94.70;;;20.41;61.36;98162.41;5011410;28;119339;-79
2022/09/08 06:28:00;;;;;;;2.93;1.40;;;20.10;94.70;;;20.37;61.03;98165.22;5008247;28;124125;-79
2022/09/08 06:30:26;;;;;;;2.20;1.00;;;20.00;94.60;;;20.36;61.27;98165.59;5017734;28;123474;-80
2022/09/08 06:33:08;;;;;;;2.53;1.40;;;20.00;94.60;;;20.34;60.80;98159.56;5005115;28;118537;-79
2022/09/08 06:36:05;;;;;;;3.83;1.33;;;20.00;94.60;;;20.31;61.06;98158.38;5021249;28;118015;-79
2022/09/08 06:38:43;;;;;;;3.23;1.00;;;20.00;94.50;;;20.32;60.84;98176.03;5021621;27;124048;-79
2022/09/08 06:41:17;;;;;;;1.03;0.93;;;20.00;94.40;;;20.31;60.47;98172.41;5011149;28;122823;-83
2022/09/08 06:43:57;;;;;;;3.23;1.10;;;20.00;94.30;;;20.28;60.58;98171.19;5011658;28;119116;-80
2022/09/08 06:46:32;;;;;;;2.10;1.00;;;20.00;94.30;;;20.30;60.55;98182.81;5012002;27;119002;-79
2022/09/08 06:48:59;;;;;;;1.40;0.90;;;20.00;94.30;;;20.34;60.33;98179.22;5011182;28;124773;-80
2022/09/08 06:51:55;;;;;;;1.90;1.20;;;20.00;94.30;;;20.35;60.29;98183.66;5018682;28;124559;-80
2022/09/08 06:54:49;;;;;;;2.83;1.13;;;20.00;94.20;;;20.37;60.35;98165.22;5004684;28;120414;-80
2022/09/08 06:58:05;;;;;;;1.30;1.20;;;20.00;94.20;;;20.41;60.49;98174.44;5000723;28;118457;-81
2022/09/08 07:01:13;;;;;;;1.87;1.10;;;20.00;94.10;;;20.46;59.90;98174.06;4959767;28;124659;-81
2022/09/08 07:04:22;;;;;;;1.60;1.10;;;20.10;94.10;;;20.45;59.61;98177.28;4973278;28;124549;-82
2022/09/08 07:07:00;;;;;;;1.27;1.07;;;20.00;93.80;;;20.48;59.50;98193.34;4968567;28;119172;-79
2022/09/08 07:09:50;;;;;;;1.40;1.00;;;20.10;93.80;;;20.46;58.73;98187.31;4971533;28;118646;-80
2022/09/08 07:12:32;;;;;;;2.20;1.40;;;20.10;93.60;;;20.42;58.90;98178.88;4977550;28;123841;-79
2022/09/08 07:15:24;;;;;;;2.43;1.20;;;20.00;93.40;;;20.42;58.79;98195.72;4981896;28;122826;-82
2022/09/08 07:18:33;;;;;;;1.27;0.90;;;20.00;93.40;;;20.44;58.80;98189.69;4975824;28;96770;-81
2022/09/08 07:21:28;;;;;;;2.23;1.10;;;20.10;93.40;;;20.44;59.02;98195.31;4941707;28;118772;-78
2022/09/08 07:23:58;;;;;;;1.80;1.20;;;20.00;93.40;;;20.46;59.20;98190.09;4954620;28;123685;-80
2022/09/08 07:26:45;;;;;;;1.33;1.10;;;20.10;93.70;;;20.48;58.63;98196.94;4959464;28;123266;-78
2022/09/08 07:29:21;;;;;;;1.10;0.90;;;20.10;93.40;;;20.46;58.84;98190.09;4963084;28;119257;-79
2022/09/08 07:31:52;;;;;;;1.10;1.00;;;20.10;93.30;;;20.48;59.06;98187.72;4964722;28;119436;-81
2022/09/08 07:34:30;;;;;;;1.57;1.10;;;20.10;93.40;;;20.52;58.85;98191.34;4976084;28;124248;-79
2022/09/08 07:37:29;;;;;;;1.77;1.13;;;20.10;93.40;;;20.53;58.91;98187.34;4986981;27;123542;-79
2022/09/08 07:40:16;;;;;;;2.87;1.10;;;20.10;93.30;;;20.54;58.32;98188.97;5027085;27;119120;-80
2022/09/08 07:42:57;;;;;;;1.30;1.00;;;20.10;93.10;;;20.51;58.04;98206.56;5028163;28;118166;-78
2022/09/08 07:45:45;;;;;;;2.90;1.10;;;20.10;92.90;;;20.49;58.12;98203.34;5024760;28;123780;-81
2022/09/08 07:48:31;;;;;;;2.57;0.90;;;20.10;92.80;;;20.49;57.35;98206.94;5022707;27;123932;-79
2022/09/08 07:51:18;;;;;;;1.20;1.10;;;20.10;92.60;;;20.54;57.86;98208.63;5026230;28;120253;-78
2022/09/08 07:54:27;;;;;;;2.27;1.10;;;20.10;92.60;;;20.65;57.20;98211.47;5011458;28;119730;-78
2022/09/08 07:56:58;;;;;;;2.00;1.10;;;20.20;92.70;;;20.76;57.09;98217.94;5006537;28;124301;-78
2022/09/08 07:59:54;;;;;;;2.70;1.07;;;20.20;92.60;;;20.74;56.64;98201.50;5041874;27;123172;-78
2022/09/08 08:02:35;;;;;;;2.30;1.00;;;20.30;92.40;;;20.76;56.63;98214.31;5008513;28;119772;-78
2022/09/08 08:05:18;;;;;;;1.43;0.90;;;20.30;92.20;;;20.76;56.40;98215.13;5010032;28;119071;-79
2022/09/08 08:08:13;;;;;;;1.10;1.00;;;20.30;92.20;;;20.77;56.80;98201.88;5020956;28;124005;-77
2022/09/08 08:11:03;;;;;;;11.00;2.63;;;20.30;92.20;;;20.84;56.44;98207.53;5009487;28;123361;-79
2022/09/08 08:14:10;;;;;;;6.50;1.33;;;20.30;92.20;;;20.90;56.08;98218.00;5011055;28;119546;-78
2022/09/08 08:17:00;;;;;;;1.77;1.10;;;20.40;92.00;;;20.95;56.02;98219.59;5020331;28;118826;-80
2022/09/08 08:19:47;;;;;;;3.50;1.20;;;20.40;91.80;;;20.98;56.02;98221.63;5018257;28;124634;-77
2022/09/08 08:22:57;;;;;;;1.70;1.00;;;20.50;91.80;;;20.99;55.67;98228.88;5020489;28;123887;-78
2022/09/08 08:25:29;;;;;;;2.37;0.97;;;20.50;91.60;;;21.03;54.66;98221.25;5016226;28;119310;-80
2022/09/08 08:28:14;;;;;;;1.87;0.90;;;20.50;91.40;;;21.07;55.02;98229.69;5012140;28;119004;-79
2022/09/08 08:31:12;;;;;;;1.27;0.90;;;20.60;91.40;;;21.11;55.05;98233.31;5014297;28;125696;-80
2022/09/08 08:33:52;;;;;;;2.90;0.97;;;20.60;91.30;;;21.13;55.03;98231.72;5022421;28;123862;-79
2022/09/08 08:36:23;;;;;;;2.17;1.00;;;20.60;91.20;;;21.11;54.63;98231.28;5022043;28;119439;-79
2022/09/08 08:39:00;;;;;;;1.40;1.03;;;20.60;91.00;;;21.10;54.57;98246.56;5026977;27;119179;-79
2022/09/08 08:41:45;;;;;;;1.50;1.30;;;20.60;90.90;;;21.06;54.58;98248.53;5019296;27;123958;-78
2022/09/08 08:44:47;;;;;;;2.00;1.13;;;20.60;90.90;;;21.08;54.63;98240.50;5017431;28;124333;-79
2022/09/08 08:47:26;;;;;;;1.47;1.00;;;20.70;90.90;;;21.13;54.74;98231.72;5019671;27;120583;-79
2022/09/08 08:50:12;;;;;;;1.43;1.07;;;20.70;90.90;;;21.22;54.43;98241.75;5020180;27;119838;-82
2022/09/08 08:53:05;;;;;;;2.30;0.90;;;20.70;90.80;;;21.34;54.12;98245.00;5017595;28;124090;-78
2022/09/08 08:56:12;;;;;;;1.80;1.00;;;20.80;90.70;;;21.36;53.09;98250.25;5010451;28;123773;-80
2022/09/08 08:59:51;;;;;;;1.10;0.90;;;20.90;90.00;;;21.31;52.94;98247.81;5019620;28;119845;-79
2022/09/08 09:02:59;;;;;;;3.03;1.60;;;20.90;89.90;;;21.28;52.83;98254.22;4947897;28;118587;-78
2022/09/08 09:05:57;;;;;;;1.07;0.97;;;20.90;89.70;;;21.30;53.13;98258.22;4955908;28;125087;-82
2022/09/08 09:08:57;;;;;;;1.40;1.03;;;20.90;89.60;;;21.35;52.72;98260.66;4965503;28;123655;-83
2022/09/08 09:11:44;;;;;;;1.40;1.00;;;20.90;89.60;;;21.40;52.94;98253.88;4966514;28;118549;-80
2022/09/08 09:14:55;;;;;;;1.90;1.20;;;21.00;89.50;;;21.47;52.63;98261.53;4966503;28;118990;-82
2022/09/08 09:18:27;;;;;;;3.13;1.10;;;21.00;89.20;;;21.49;52.12;98253.50;4964513;28;124267;-81
2022/09/08 09:21:14;;;;;;;3.07;1.70;;;21.10;88.60;;;21.51;51.70;98260.31;4884864;28;123676;-80
2022/09/08 09:24:12;;;;;;;1.57;0.90;;;21.10;88.00;;;21.48;51.28;98246.28;4963773;28;119509;-78
2022/09/08 09:26:47;;;;;;;1.10;0.90;;;21.10;87.30;;;21.46;51.13;98254.28;4963967;28;119486;-81
2022/09/08 09:29:25;;;;;;;1.83;0.93;;;21.10;86.80;;;21.45;51.26;98252.69;4956737;28;124252;-80
2022/09/08 09:32:45;;;;;;;1.40;1.20;;;21.10;86.80;;;21.39;51.14;98260.72;4963567;28;124336;-79
2022/09/08 09:35:30;;;;;;;2.60;1.70;;;21.10;86.30;;;21.39;50.84;98271.97;5000629;28;119481;-79
2022/09/08 09:38:03;;;;;;;4.00;1.20;;;21.00;86.00;;;21.39;50.94;98261.50;5019912;28;118213;-79
2022/09/08 09:41:09;;;;;;;1.73;1.00;;;21.00;86.10;;;21.41;51.09;98258.28;5021344;28;124292;-79
2022/09/08 09:44:04;;;;;;;1.57;0.90;;;21.00;86.20;;;21.48;50.74;98252.69;5017639;28;124348;-80
2022/09/08 09:46:55;;;;;;;1.70;0.90;;;21.10;86.10;;;21.52;50.27;98247.91;5010986;28;120271;-79
2022/09/08 09:49:43;;;;;;;1.60;1.00;;;21.10;85.60;;;21.57;50.42;98244.69;5012699;28;120170;-80
2022/09/08 09:52:22;;;;;;;1.63;0.87;;;21.20;85.50;;;21.65;49.98;98241.88;5014291;28;123979;-79
2022/09/08 09:55:54;;;;;;;1.40;1.07;;;21.20;85.10;;;21.68;49.40;98261.56;5010442;28;124048;-80
2022/09/08 09:58:26;;;;;;;1.30;0.90;;;21.20;84.50;;;21.75;48.80;98250.31;5000251;28;119342;-80
2022/09/08 10:01:15;;;;;;;3.60;1.50;;;21.30;84.10;;;21.84;49.01;98241.47;5007076;28;119079;-79
2022/09/08 10:03:47;;;;;;;1.40;1.00;;;21.40;84.00;;;21.98;49.05;98223.81;5008657;28;124206;-78
2022/09/08 10:06:26;;;;;;;4.60;1.30;;;21.50;84.10;;;22.12;48.73;98228.63;5013632;28;123835;-79
2022/09/08 10:09:40;;;;;;;3.33;1.33;;;21.60;84.10;;;22.26;48.64;98234.25;5017440;28;119124;-81
2022/09/08 10:12:14;;;;;;;1.60;0.90;;;21.70;83.90;;;22.40;47.92;98225.75;5013214;28;120012;-80
2022/09/08 10:15:05;;;;;;;2.37;1.03;;;21.80;83.40;;;22.54;47.39;98235.38;5013474;28;124519;-81
2022/09/08 10:17:55;;;;;;;1.80;1.10;;;21.90;82.80;;;22.62;46.80;98228.50;5017429;28;123891;-82
2022/09/08 10:20:43;;;;;;;1.03;0.90;;;22.00;81.50;;;22.60;46.02;98228.13;5005294;28;119846;-80
2022/09/08 10:23:39;;;;;;;3.63;1.27;;;22.10;80.10;;;22.61;46.10;98235.38;5016539;28;119403;-81
2022/09/08 10:26:57;;;;;;;1.23;1.00;;;22.10;80.20;;;22.61;46.43;98238.19;5006218;28;123784;-79
2022/09/08 10:29:36;;;;;;;2.20;1.00;;;22.10;80.10;;;22.61;46.04;98233.34;4981721;28;123594;-80
2022/09/08 10:32:14;;;;;;;1.97;1.13;;;22.20;80.00;;;22.65;46.16;98236.16;5020994;27;119424;-80
2022/09/08 10:35:09;;;;;;;4.00;1.00;;;22.20;79.90;;;22.67;45.84;98230.91;5013816;28;119582;-81
2022/09/08 10:38:32;;;;;;;2.20;1.03;;;22.20;79.10;;;22.68;45.66;98238.16;5018718;28;124080;-80
2022/09/08 10:41:13;;;;;;;1.70;1.00;;;22.20;79.10;;;22.73;45.63;98226.47;5029010;27;125584;-79
2022/09/08 10:44:10;;;;;;;1.00;0.90;;;21.10;78.10;;;22.77;45.81;98230.06;5020134;28;120368;-79
2022/09/08 10:47:07;;;;;;;1.20;1.00;;;22.30;79.00;;;22.82;45.70;98238.09;5011047;27;119894;-82
2022/09/08 10:50:19;;;;;;;1.80;1.10;;;22.30;79.00;;;22.81;45.63;98230.88;5009929;28;123926;-80
2022/09/08 10:52:56;;;;;;;2.07;1.00;;;22.40;78.80;;;22.78;45.80;98226.03;5027046;27;125101;-82
2022/09/08 10:55:56;;;;;;;1.30;0.90;;;22.40;78.60;;;22.80;45.79;98229.25;5004721;28;119106;-83
2022/09/08 10:59:11;;;;;;;1.30;1.10;;;22.40;78.80;;;22.84;45.95;98232.88;5013186;28;119201;-80
2022/09/08 11:02:13;;;;;;;1.40;1.03;;;22.40;78.90;;;22.86;45.59;98238.91;5007994;28;124297;-79
2022/09/08 11:05:29;;;;;;;1.50;0.90;;;22.40;78.70;;;22.87;45.89;98242.53;5011305;27;123946;-81